Humidity-temperature Sensor

Selected Measurement Type: Relative Humidity

 
Relative Humidity [%]     6 entries per hour
Showing data from 4/17/2023 (00:00:00 Z) to 4/10/2023 (00:01:00 Z)
Previous Next [ Day | 3-Days | 7-Days ]
First Last
Prev [ Day | 3-Days | 7-Days ] Next
First Last

Start Time:     :
End Time:     :     
Time (in GMT) :00 :50 :40 :30 :20 :10
Previous Next [ Day | 3-Days | 7-Days ]
First Last
Prev [ Day | 3-Days | 7-Days ] Next
First Last


123 => good data
MM => data is determined as missing
-- => data not received/configured
Back to Top Back to Top
4/17/2023 00:00 to 23:10 85.67 84.04 83.98 85.75 86.34 87.32
4/16/2023 23:00 to 22:10 88.59 93.08 90.35 85.00 85.50 84.82
4/16/2023 22:00 to 21:10 85.80 85.61 85.30 86.38 86.15 85.44
4/16/2023 21:00 to 20:10 85.13 85.32 84.75 85.09 88.51 86.92
4/16/2023 20:00 to 19:10 86.78 85.73 86.07 88.61 87.57 87.49
4/16/2023 19:00 to 18:10 87.57 93.12 94.65 94.02 94.56 95.40
4/16/2023 18:00 to 17:10 95.25 95.15 94.42 90.24 93.12 93.96
4/16/2023 17:00 to 16:10 85.96 86.59 87.59 85.92 86.05 86.03
4/16/2023 16:00 to 15:10 87.07 85.86 87.03 87.82 88.59 87.72
4/16/2023 15:00 to 14:10 87.63 87.38 88.28 87.74 88.34 86.80
4/16/2023 14:00 to 13:10 87.63 88.34 88.55 89.16 88.87 85.59
4/16/2023 13:00 to 12:10 86.34 88.16 88.64 87.28 87.22 87.99
4/16/2023 12:00 to 11:10 88.28 88.99 88.78 88.55 86.99 87.09
4/16/2023 11:00 to 10:10 88.11 87.95 87.88 86.34 88.43 86.30
4/16/2023 10:00 to 9:10 88.20 88.43 91.95 89.37 87.65 88.34
4/16/2023 09:00 to 8:10 88.55 88.72 88.87 88.16 88.01 87.95
4/16/2023 08:00 to 7:10 88.03 87.76 87.26 87.20 86.51 86.82
4/16/2023 07:00 to 6:10 86.82 86.30 87.59 87.24 87.22 88.34
4/16/2023 06:00 to 5:10 88.24 87.34 86.94 87.01 86.94 85.92
4/16/2023 05:00 to 4:10 87.30 85.59 84.92 84.31 84.75 86.26
4/16/2023 04:00 to 3:10 86.17 86.01 87.17 86.15 85.96 84.94
4/16/2023 03:00 to 2:10 84.21 86.01 86.17 86.69 85.40 86.42
4/16/2023 02:00 to 1:10 86.76 85.46 87.01 84.59 86.09 87.22
4/16/2023 01:00 to 0:10 85.40 86.11 85.50 86.36 85.86 86.15
4/16/2023 00:00 to 23:10 86.55 84.88 84.73 84.67 85.71 86.40
4/15/2023 23:00 to 22:10 84.13 84.90 86.28 85.52 86.34 84.34
4/15/2023 22:00 to 21:10 85.44 85.13 84.77 85.46 85.25 85.69
4/15/2023 21:00 to 20:10 85.73 83.73 85.25 86.61 86.23 86.51
4/15/2023 20:00 to 19:10 86.53 87.36 86.26 86.46 84.92 84.17
4/15/2023 19:00 to 18:10 84.27 85.27 85.32 86.36 85.44 86.57
4/15/2023 18:00 to 17:10 85.65 85.75 85.84 86.26 86.26 85.71
4/15/2023 17:00 to 16:10 87.09 85.92 87.05 86.53 87.28 87.34
4/15/2023 16:00 to 15:10 87.32 87.74 88.30 89.49 90.62 90.33
4/15/2023 15:00 to 14:10 91.87 91.39 90.68 90.45 95.42 92.98
4/15/2023 14:00 to 13:10 93.67 90.62 90.31 91.73 90.70 89.39
4/15/2023 13:00 to 12:10 89.03 89.32 93.21 92.31 91.75 92.37
4/15/2023 12:00 to 11:10 85.09 85.36 85.94 87.05 85.63 85.42
4/15/2023 11:00 to 10:10 87.05 87.51 89.43 89.32 87.84 86.69
4/15/2023 10:00 to 9:10 86.86 86.78 85.69 87.22 87.34 87.59
4/15/2023 09:00 to 8:10 87.61 88.24 90.24 88.16 87.28 84.79
4/15/2023 08:00 to 7:10 85.59 86.46 86.19 88.84 90.93 92.62
4/15/2023 07:00 to 6:10 91.14 88.61 86.53 87.55 86.99 88.89
4/15/2023 06:00 to 5:10 90.89 87.88 87.53 87.03 86.55 86.97
4/15/2023 05:00 to 4:10 87.34 86.44 86.76 86.28 87.57 85.78
4/15/2023 04:00 to 3:10 86.76 87.97 86.38 87.76 89.95 91.37
4/15/2023 03:00 to 2:10 92.54 94.59 92.87 86.36 87.15 87.99
4/15/2023 02:00 to 1:10 92.00 91.20 87.05 85.96 87.51 90.37
4/15/2023 01:00 to 0:10 91.50 92.87 90.74 90.97 91.39 90.08
4/15/2023 00:00 to 23:10 89.45 90.05 90.20 89.14 88.41 88.05
4/14/2023 23:00 to 22:10 88.53 88.26 87.22 87.17 87.72 87.82
4/14/2023 22:00 to 21:10 85.82 87.99 89.45 87.93 88.97 89.18
4/14/2023 21:00 to 20:10 88.84 87.36 85.98 88.32 89.05 87.72
4/14/2023 20:00 to 19:10 89.07 88.34 88.89 88.11 88.36 87.65
4/14/2023 19:00 to 18:10 86.17 89.49 87.88 89.01 88.43 87.90
4/14/2023 18:00 to 17:10 87.55 87.68 86.69 87.88 86.80 86.05
4/14/2023 17:00 to 16:10 87.47 86.74 87.07 85.82 86.15 86.99
4/14/2023 16:00 to 15:10 86.26 86.57 86.90 87.86 87.70 87.51
4/14/2023 15:00 to 14:10 88.11 86.78 87.24 87.55 87.76 86.82
4/14/2023 14:00 to 13:10 86.99 87.68 87.78 86.67 87.07 87.70
4/14/2023 13:00 to 12:10 88.93 85.23 87.42 85.96 84.54 85.92
4/14/2023 12:00 to 11:10 86.38 86.61 87.38 86.55 84.31 87.26
4/14/2023 11:00 to 10:10 86.42 87.05 87.55 86.26 86.57 86.19
4/14/2023 10:00 to 9:10 86.36 87.20 86.84 86.30 88.38 88.13
4/14/2023 09:00 to 8:10 87.61 86.76 86.65 85.38 86.44 86.03
4/14/2023 08:00 to 7:10 87.90 87.40 85.96 86.03 85.84 84.54
4/14/2023 07:00 to 6:10 83.15 81.48 83.42 81.45 83.40 83.46
4/14/2023 06:00 to 5:10 82.37 83.96 85.34 86.53 85.25 85.23
4/14/2023 05:00 to 4:10 84.00 85.23 85.94 86.09 85.25 87.76
4/14/2023 04:00 to 3:10 88.22 88.43 87.61 86.32 85.48 86.74
4/14/2023 03:00 to 2:10 84.02 81.14 85.73 85.75 86.34 86.19
4/14/2023 02:00 to 1:10 85.63 85.90 85.13 85.67 86.55 84.56
4/14/2023 01:00 to 0:10 84.44 84.90 84.96 85.34 85.11 86.07
4/14/2023 00:00 to 23:10 85.23 86.30 85.75 85.02 85.61 84.92
4/13/2023 23:00 to 22:10 86.05 86.19 87.26 87.55 86.49 86.23
4/13/2023 22:00 to 21:10 84.92 86.92 86.13 83.75 86.13 84.29
4/13/2023 21:00 to 20:10 85.13 86.21 85.21 85.23 85.09 84.92
4/13/2023 20:00 to 19:10 85.92 85.73 84.06 84.23 85.17 85.36
4/13/2023 19:00 to 18:10 84.90 83.44 84.25 85.73 84.15 83.29
4/13/2023 18:00 to 17:10 85.21 84.52 83.46 84.65 84.63 82.50
4/13/2023 17:00 to 16:10 82.06 82.66 84.17 86.13 85.61 84.71
4/13/2023 16:00 to 15:10 86.11 86.28 85.69 84.73 83.46 84.25
4/13/2023 15:00 to 14:10 83.65 85.65 85.55 85.78 87.13 86.44
4/13/2023 14:00 to 13:10 86.40 87.36 87.84 87.07 87.45 85.44
4/13/2023 13:00 to 12:10 86.76 86.94 86.34 86.59 87.26 88.91
4/13/2023 12:00 to 11:10 87.74 84.90 84.13 84.17 83.88 84.54
4/13/2023 11:00 to 10:10 84.04 84.13 84.38 85.07 83.69 84.86
4/13/2023 10:00 to 9:10 85.80 84.50 85.09 84.69 83.46 85.17
4/13/2023 09:00 to 8:10 85.82 84.69 84.29 83.88 84.67 85.34
4/13/2023 08:00 to 7:10 86.01 85.04 83.77 85.19 85.13 84.92
4/13/2023 07:00 to 6:10 84.54 84.11 85.25 83.98 83.46 83.71
4/13/2023 06:00 to 5:10 84.36 84.63 85.52 85.50 84.31 84.46
4/13/2023 05:00 to 4:10 83.71 82.39 81.79 84.82 84.11 82.25
4/13/2023 04:00 to 3:10 83.29 83.77 83.12 84.27 84.04 83.52
4/13/2023 03:00 to 2:10 85.84 83.77 85.67 84.15 84.54 86.21
4/13/2023 02:00 to 1:10 85.04 84.79 84.13 84.23 83.85 85.04
4/13/2023 01:00 to 0:10 83.85 85.44 83.83 84.34 84.71 84.92
4/13/2023 00:00 to 23:10 84.75 85.15 85.78 85.67 85.71 85.25
4/12/2023 23:00 to 22:10 85.04 84.19 85.30 83.77 84.42 84.17
4/12/2023 22:00 to 21:10 83.79 85.25 84.98 83.79 85.30 85.09
4/12/2023 21:00 to 20:10 84.04 83.90 84.27 83.56 84.17 84.77
4/12/2023 20:00 to 19:10 82.94 83.37 84.27 83.56 84.15 83.15
4/12/2023 19:00 to 18:10 84.06 83.96 84.11 85.11 84.00 84.02
4/12/2023 18:00 to 17:10 83.79 85.09 84.56 86.59 85.84 84.44
4/12/2023 17:00 to 16:10 85.40 84.34 83.37 85.67 84.77 84.56
4/12/2023 16:00 to 15:10 84.19 85.04 85.42 84.59 84.82 86.44
4/12/2023 15:00 to 14:10 86.97 84.94 85.94 85.34 85.82 86.01
4/12/2023 14:00 to 13:10 85.67 86.32 87.28 86.67 86.76 84.52
4/12/2023 13:00 to 12:10 86.21 88.45 88.01 87.76 84.06 86.30
4/12/2023 12:00 to 11:10 84.92 85.73 85.96 85.30 86.15 84.38
4/12/2023 11:00 to 10:10 83.96 84.21 84.69 85.86 86.30 85.65
4/12/2023 10:00 to 9:10 86.11 85.42 85.40 85.88 85.19 84.90
4/12/2023 09:00 to 8:10 84.67 84.77 84.54 84.73 84.90 85.30
4/12/2023 08:00 to 7:10 83.77 84.34 84.67 85.13 83.31 83.52
4/12/2023 07:00 to 6:10 83.92 84.06 84.94 84.23 84.84 84.13
4/12/2023 06:00 to 5:10 84.50 85.19 82.71 85.30 83.94 84.36
4/12/2023 05:00 to 4:10 83.56 83.81 84.34 83.12 84.34 84.88
4/12/2023 04:00 to 3:10 83.96 84.59 84.56 84.04 84.65 85.04
4/12/2023 03:00 to 2:10 83.56 82.87 83.73 83.27 83.33 83.27
4/12/2023 02:00 to 1:10 84.63 83.25 83.77 83.67 84.04 84.63
4/12/2023 01:00 to 0:10 83.06 83.21 83.58 82.37 83.50 83.98
4/12/2023 00:00 to 23:10 83.21 83.42 82.35 83.85 82.54 82.77
4/11/2023 23:00 to 22:10 82.69 82.16 81.39 82.94 80.26 81.16
4/11/2023 22:00 to 21:10 82.89 82.27 82.60 82.35 81.48 81.56
4/11/2023 21:00 to 20:10 82.52 81.62 80.93 80.29 82.66 81.45
4/11/2023 20:00 to 19:10 81.43 79.55 80.01 79.39 80.77 79.70
4/11/2023 19:00 to 18:10 80.43 80.85 80.91 81.37 79.30 79.78
4/11/2023 18:00 to 17:10 79.55 80.62 79.64 81.45 80.74 81.20
4/11/2023 17:00 to 16:10 80.97 79.87 79.72 79.64 81.29 81.89
4/11/2023 16:00 to 15:10 83.17 83.35 83.02 81.73 81.16 79.72
4/11/2023 15:00 to 14:10 80.79 81.35 82.00 81.87 80.68 81.06
4/11/2023 14:00 to 13:10 81.06 80.91 81.91 81.87 81.48 79.41
4/11/2023 13:00 to 12:10 78.39 78.51 79.26 78.24 77.09 76.84
4/11/2023 12:00 to 11:10 78.05 79.35 77.88 78.20 75.98 75.23
4/11/2023 11:00 to 10:10 79.24 83.17 79.32 77.74 80.18 81.02
4/11/2023 10:00 to 9:10 81.14 81.64 82.14 80.31 82.23 80.10
4/11/2023 09:00 to 8:10 80.33 80.89 79.32 79.58 80.22 80.31
4/11/2023 08:00 to 7:10 80.68 77.76 77.49 77.32 77.17 74.79
4/11/2023 07:00 to 6:10 76.67 76.67 75.98 77.03 77.72 79.41
4/11/2023 06:00 to 5:10 80.01 77.68 78.97 78.82 77.93 78.82
4/11/2023 05:00 to 4:10 78.01 77.30 76.94 80.18 79.41 79.43
4/11/2023 04:00 to 3:10 78.80 79.83 78.49 76.55 78.28 76.65
4/11/2023 03:00 to 2:10 75.92 75.42 77.57 75.02 77.49 79.10
4/11/2023 02:00 to 1:10 79.66 80.62 82.62 82.62 83.44 84.36
4/11/2023 01:00 to 0:10 86.61 83.00 80.93 79.32 80.66 80.35
4/11/2023 00:00 to 23:10 79.35 76.55 79.03 81.29 81.54 84.63
4/10/2023 23:00 to 22:10 86.44 86.36 80.35 80.95 78.76 81.04
4/10/2023 22:00 to 21:10 78.64 78.72 80.18 78.97 78.68 80.37
4/10/2023 21:00 to 20:10 81.48 82.98 81.98 80.97 79.89 81.37
4/10/2023 20:00 to 19:10 81.20 81.16 80.93 81.25 82.14 83.79
4/10/2023 19:00 to 18:10 79.72 81.14 82.48 81.79 79.97 79.97
4/10/2023 18:00 to 17:10 78.78 79.85 81.33 81.50 83.10 80.29
4/10/2023 17:00 to 16:10 80.97 81.83 82.60 82.98 80.43 79.03
4/10/2023 16:00 to 15:10 79.05 81.04 83.10 80.74 81.20 80.24
4/10/2023 15:00 to 14:10 80.16 83.46 83.73 81.83 81.66 81.10
4/10/2023 14:00 to 13:10 80.39 84.75 83.08 79.32 84.59 82.89
4/10/2023 13:00 to 12:10 81.87 81.20 82.16 80.97 84.40 83.60
4/10/2023 12:00 to 11:10 82.64 83.31 82.66 82.16 82.52 83.08
4/10/2023 11:00 to 10:10 83.94 81.75 84.46 83.50 84.02 83.98
4/10/2023 10:00 to 9:10 84.50 84.84 83.81 84.90 85.78 85.92
4/10/2023 09:00 to 8:10 86.03 83.88 84.13 82.73 81.66 84.06
4/10/2023 08:00 to 7:10 84.52 83.12 82.60 84.06 82.50 81.68
4/10/2023 07:00 to 6:10 82.98 84.84 83.83 83.58 81.81 82.02
4/10/2023 06:00 to 5:10 81.96 83.63 84.25 83.06 82.94 82.87
4/10/2023 05:00 to 4:10 81.60 80.70 83.81 83.04 80.72 80.60
4/10/2023 04:00 to 3:10 80.37 83.00 81.45 81.68 82.52 83.85
4/10/2023 03:00 to 2:10 83.08 80.54 82.02 81.60 82.23 80.54
4/10/2023 02:00 to 1:10 81.37 80.39 81.41 82.14 79.32 80.51
4/10/2023 01:00 to 0:10 83.69 82.62 81.50 80.91 82.48 81.93